Insular — CSDD — position and weather

sailwx.info

Track history (hours):
 
Tides and Currents Weather Stations Pressure Air Temp Water Temp Dewpoint Dewpoint Depression Visibility Wind Speed Wind Dir Waves Ship Positions

Insular

Last reported at 2017-Mar-19 22:25 UTC. Time now 2017-Mar-23 00:26 UTC.
Position N 35°34' W 013°11'.

Length 120 m; draft 6.4 m.

Type: Ship (hazmat cat A). MMSI: 263752000.

Date/timePositionNaut miles runAvg speedWind from/ knotsBaromVisibWave heightAir tempDewpointWater temp
2017-Mar-19 22:25N 35°34' W 013°11'2116.0
2017-Mar-19 21:06N 35°49' W 012°52'1416.1
2017-Mar-19 20:15N 35°59' W 012°41'1116.3
2017-Mar-19 19:33N 36°08' W 012°31'13916.4
2017-Mar-19 11:05N 37°45' W 010°28'916.2
2017-Mar-19 10:33N 37°52' W 010°20'1616.4
2017-Mar-19 09:33N 38°03' W 010°06'1616.0
2017-Mar-19 08:34N 38°14' W 009°52'1615.8
2017-Mar-19 07:33N 38°26' W 009°37'1615.9
2017-Mar-19 06:34N 38°37' W 009°23'1312.9
2017-Mar-19 05:34N 38°42' W 009°08'1 1.2
2017-Mar-19 04:28N 38°43' W 009°07'0 0.0
2017-Mar-19 03:31N 38°43' W 009°07'0 0.0
2017-Mar-19 02:31N 38°43' W 009°07'0 0.0
2017-Mar-19 01:31N 38°43' W 009°07'0 0.0
2017-Mar-19 00:31N 38°43' W 009°07'0 0.0
2017-Mar-18 23:28N 38°43' W 009°07'0 0.0
2017-Mar-18 22:31N 38°43' W 009°07'0 0.0
2017-Mar-18 21:31N 38°43' W 009°07'0 0.0
2017-Mar-18 20:31N 38°43' W 009°07'0 0.0
2017-Mar-18 19:10N 38°43' W 009°07'0 0.0
2017-Mar-18 18:28N 38°43' W 009°07'0 0.0
2017-Mar-18 17:31N 38°43' W 009°07'0 0.0
2017-Mar-18 16:25N 38°43' W 009°07'0 0.0
2017-Mar-18 15:31N 38°43' W 009°07'0 0.0
2017-Mar-18 14:30N 38°43' W 009°07'0 0.0
2017-Mar-18 13:33N 38°43' W 009°07'0 0.3
2017-Mar-18 12:33N 38°43' W 009°07'1111.2
2017-Mar-18 11:34N 38°39' W 009°20'1515.0
2017-Mar-18 10:33N 38°39' W 009°40'1615.5
2017-Mar-18 09:33N 38°55' W 009°43'1616.3
2017-Mar-18 08:33N 39°11' W 009°43'1615.9
2017-Mar-18 07:33N 39°27' W 009°43'1616.1
2017-Mar-18 06:33N 39°42' W 009°36'1616.2
2017-Mar-18 05:33N 39°57' W 009°28'1615.8
2017-Mar-18 04:34N 40°11' W 009°19'1615.8
2017-Mar-18 03:33N 40°26' W 009°10'1815.8
2017-Mar-18 02:25N 40°42' W 009°00'103 2.6
2017-Mar-16 11:15N 39°21' W 010°22'1115.5
2017-Mar-16 10:33N 39°12' W 010°31'1515.5
2017-Mar-16 09:33N 39°00' W 010°43'  
2017-Mar-12 16:20N 36°08' W 012°30'17616.2
2017-Mar-12 05:31N 38°12' W 009°54'1516.0
2017-Mar-12 04:33N 38°23' W 009°40'1616.1
2017-Mar-12 03:33N 38°34' W 009°26'1413.2
2017-Mar-12 02:29N 38°42' W 009°10'3 3.1
2017-Mar-12 01:31N 38°43' W 009°07'0 0.0
2017-Mar-12 00:28N 38°43' W 009°07'0 0.0
2017-Mar-11 23:31N 38°43' W 009°07'0 0.0
2017-Mar-11 22:28N 38°43' W 009°07'0 0.0
2017-Mar-11 21:28N 38°43' W 009°07'0 0.0
2017-Mar-11 20:34N 38°43' W 009°07'0 0.0
2017-Mar-11 19:33N 38°43' W 009°07'0 0.0
2017-Mar-11 18:34N 38°43' W 009°07'0 0.0
2017-Mar-11 17:33N 38°43' W 009°07'0 0.0
2017-Mar-11 16:33N 38°43' W 009°07'0 0.0
2017-Mar-11 15:34N 38°43' W 009°07'0 0.0
2017-Mar-11 14:34N 38°43' W 009°07'0 0.0
2017-Mar-11 13:33N 38°43' W 009°07'0 0.0
2017-Mar-11 12:33N 38°43' W 009°07'0 0.0
2017-Mar-11 11:33N 38°43' W 009°07'5 5.0
2017-Mar-11 10:33N 38°41' W 009°13'1413.9
2017-Mar-11 09:33N 38°38' W 009°30'1413.5
2017-Mar-11 08:33N 38°47' W 009°43'1716.8
2017-Mar-11 07:33N 39°04' W 009°43'1716.8
2017-Mar-11 06:33N 39°21' W 009°44'1616.1
2017-Mar-11 05:33N 39°36' W 009°40'1716.6
2017-Mar-11 04:33N 39°52' W 009°31'  
Track history (hours):
 
Tides and Currents Weather Stations Pressure Air Temp Water Temp Dewpoint Dewpoint Depression Visibility Wind Speed Wind Dir Waves Ship Positions

Insular

Last reported at 2017-Mar-19 22:25 UTC. Time now 2017-Mar-23 00:26 UTC.
Position N 35°34' W 013°11'.

Length 120 m; draft 6.4 m.

Type: Ship (hazmat cat A). MMSI: 263752000.

Date/timePositionNaut miles runAvg speedWind from/ knotsBaromVisibWave heightAir tempDewpointWater temp
2017-Mar-19 22:25N 35°34' W 013°11'2116.0
2017-Mar-19 21:06N 35°49' W 012°52'1416.1
2017-Mar-19 20:15N 35°59' W 012°41'1116.3
2017-Mar-19 19:33N 36°08' W 012°31'13916.4
2017-Mar-19 11:05N 37°45' W 010°28'916.2
2017-Mar-19 10:33N 37°52' W 010°20'1616.4
2017-Mar-19 09:33N 38°03' W 010°06'1616.0
2017-Mar-19 08:34N 38°14' W 009°52'1615.8
2017-Mar-19 07:33N 38°26' W 009°37'1615.9
2017-Mar-19 06:34N 38°37' W 009°23'1312.9
2017-Mar-19 05:34N 38°42' W 009°08'1 1.2
2017-Mar-19 04:28N 38°43' W 009°07'0 0.0
2017-Mar-19 03:31N 38°43' W 009°07'0 0.0
2017-Mar-19 02:31N 38°43' W 009°07'0 0.0
2017-Mar-19 01:31N 38°43' W 009°07'0 0.0
2017-Mar-19 00:31N 38°43' W 009°07'0 0.0
2017-Mar-18 23:28N 38°43' W 009°07'0 0.0
2017-Mar-18 22:31N 38°43' W 009°07'0 0.0
2017-Mar-18 21:31N 38°43' W 009°07'0 0.0
2017-Mar-18 20:31N 38°43' W 009°07'0 0.0
2017-Mar-18 19:10N 38°43' W 009°07'0 0.0
2017-Mar-18 18:28N 38°43' W 009°07'0 0.0
2017-Mar-18 17:31N 38°43' W 009°07'0 0.0
2017-Mar-18 16:25N 38°43' W 009°07'0 0.0
2017-Mar-18 15:31N 38°43' W 009°07'0 0.0
2017-Mar-18 14:30N 38°43' W 009°07'0 0.0
2017-Mar-18 13:33N 38°43' W 009°07'0 0.3
2017-Mar-18 12:33N 38°43' W 009°07'1111.2
2017-Mar-18 11:34N 38°39' W 009°20'1515.0
2017-Mar-18 10:33N 38°39' W 009°40'1615.5
2017-Mar-18 09:33N 38°55' W 009°43'1616.3
2017-Mar-18 08:33N 39°11' W 009°43'1615.9
2017-Mar-18 07:33N 39°27' W 009°43'1616.1
2017-Mar-18 06:33N 39°42' W 009°36'1616.2
2017-Mar-18 05:33N 39°57' W 009°28'1615.8
2017-Mar-18 04:34N 40°11' W 009°19'1615.8
2017-Mar-18 03:33N 40°26' W 009°10'1815.8
2017-Mar-18 02:25N 40°42' W 009°00'103 2.6
2017-Mar-16 11:15N 39°21' W 010°22'1115.5
2017-Mar-16 10:33N 39°12' W 010°31'1515.5
2017-Mar-16 09:33N 39°00' W 010°43'  
2017-Mar-12 16:20N 36°08' W 012°30'17616.2
2017-Mar-12 05:31N 38°12' W 009°54'1516.0
2017-Mar-12 04:33N 38°23' W 009°40'1616.1
2017-Mar-12 03:33N 38°34' W 009°26'1413.2
2017-Mar-12 02:29N 38°42' W 009°10'3 3.1
2017-Mar-12 01:31N 38°43' W 009°07'0 0.0
2017-Mar-12 00:28N 38°43' W 009°07'0 0.0
2017-Mar-11 23:31N 38°43' W 009°07'0 0.0
2017-Mar-11 22:28N 38°43' W 009°07'0 0.0
2017-Mar-11 21:28N 38°43' W 009°07'0 0.0
2017-Mar-11 20:34N 38°43' W 009°07'0 0.0
2017-Mar-11 19:33N 38°43' W 009°07'0 0.0
2017-Mar-11 18:34N 38°43' W 009°07'0 0.0
2017-Mar-11 17:33N 38°43' W 009°07'0 0.0
2017-Mar-11 16:33N 38°43' W 009°07'0 0.0
2017-Mar-11 15:34N 38°43' W 009°07'0 0.0
2017-Mar-11 14:34N 38°43' W 009°07'0 0.0
2017-Mar-11 13:33N 38°43' W 009°07'0 0.0
2017-Mar-11 12:33N 38°43' W 009°07'0 0.0
2017-Mar-11 11:33N 38°43' W 009°07'5 5.0
2017-Mar-11 10:33N 38°41' W 009°13'1413.9
2017-Mar-11 09:33N 38°38' W 009°30'1413.5
2017-Mar-11 08:33N 38°47' W 009°43'1716.8
2017-Mar-11 07:33N 39°04' W 009°43'1716.8
2017-Mar-11 06:33N 39°21' W 009°44'1616.1
2017-Mar-11 05:33N 39°36' W 009°40'1716.6
2017-Mar-11 04:33N 39°52' W 009°31'  

Dump ship's entire track history